Time;durP1;ratioP1;P1;durP2;ratioP2;P2;SDS_P1;SDS_P2;PMS_P1;PMS_P2;Temp;Humidity;BMP_temperature;BMP_pressure;BME280_temperature;BME280_humidity;BME280_pressure;Samples;Min_cycle;Max_cycle;Signal;HPM_P1;HPM_P2
2022/02/13 00:02:27;;;;;;;45.15;20.68;;;;;;;-2.09;71.08;101282.77;2033557;86;21097;-77
2022/02/13 00:05:32;;;;;;;43.75;21.20;;;;;;;-2.06;71.01;101286.56;2031591;86;21112;-76
2022/02/13 00:08:38;;;;;;;46.15;20.48;;;;;;;-2.06;71.00;101288.31;2048122;85;21576;-76
2022/02/13 00:11:41;;;;;;;51.92;22.02;;;;;;;-2.08;70.92;101277.98;2009947;86;21095;-83
2022/02/13 00:14:45;;;;;;;45.92;20.45;;;;;;;-2.13;70.95;101269.97;2041170;85;21489;-78
2022/02/13 00:17:48;;;;;;;44.13;20.37;;;;;;;-2.14;71.11;101276.92;2005215;86;21698;-76
2022/02/13 00:20:52;;;;;;;46.18;20.70;;;;;;;-2.17;71.31;101264.47;2034543;85;21124;-77
2022/02/13 00:23:58;;;;;;;46.20;21.00;;;;;;;-2.20;71.24;101265.88;2049572;85;21037;-78
2022/02/13 00:27:01;;;;;;;45.85;20.12;;;;;;;-2.27;71.33;101255.72;2047728;85;21141;-88
2022/02/13 00:30:08;;;;;;;52.13;20.27;;;;;;;-2.31;71.36;101259.34;2047062;85;21619;-76
2022/02/13 00:33:17;;;;;;;50.58;21.15;;;;;;;-2.32;71.42;101252.43;2005226;86;21053;-78
2022/02/13 00:36:22;;;;;;;47.10;19.77;;;;;;;-2.35;71.41;101252.55;2007857;86;21097;-77
2022/02/13 00:39:26;;;;;;;45.05;20.68;;;;;;;-2.37;71.57;101247.84;2053933;85;21579;-80
2022/02/13 00:42:28;;;;;;;44.85;20.55;;;;;;;-2.39;71.74;101245.78;2035634;86;21024;-77
2022/02/13 00:45:31;;;;;;;43.73;19.65;;;;;;;-2.39;71.85;101244.91;2025021;86;21009;-77
2022/02/13 00:48:38;;;;;;;45.05;19.20;;;;;;;-2.40;71.94;101233.67;2033489;86;21009;-77
2022/02/13 00:51:39;;;;;;;42.98;20.05;;;;;;;-2.44;71.95;101234.70;2049758;85;21560;-76
2022/02/13 00:54:44;;;;;;;45.28;18.90;;;;;;;-2.46;72.12;101230.00;2007216;85;21366;-80
2022/02/13 00:57:51;;;;;;;44.88;19.87;;;;;;;-2.49;72.20;101234.02;2033695;86;21086;-77
2022/02/13 01:01:00;;;;;;;40.15;19.35;;;;;;;-2.50;72.08;101225.83;2008760;86;21040;-77
2022/02/13 01:04:06;;;;;;;42.73;18.60;;;;;;;-2.53;72.13;101226.79;2031491;86;21072;-76
2022/02/13 01:07:10;;;;;;;41.68;19.05;;;;;;;-2.53;72.25;101224.65;2034820;85;21065;-79
2022/02/13 01:10:13;;;;;;;41.05;18.32;;;;;;;-2.54;72.56;101219.03;2032045;86;21100;-77
2022/02/13 01:13:19;;;;;;;44.67;19.45;;;;;;;-2.54;72.34;101221.63;2024166;85;21579;-77
2022/02/13 01:16:24;;;;;;;43.05;18.32;;;;;;;-2.54;72.19;101221.17;2026637;85;21450;-78
2022/02/13 01:19:27;;;;;;;39.13;19.32;;;;;;;-2.53;72.18;101216.85;2028656;85;22311;-79
2022/02/13 01:22:29;;;;;;;45.38;18.85;;;;;;;-2.54;72.11;101215.14;2035872;86;21069;-78
2022/02/13 01:25:33;;;;;;;43.40;18.98;;;;;;;-2.54;72.16;101213.84;2034528;85;21060;-89
2022/02/13 01:28:36;;;;;;;41.70;19.20;;;;;;;-2.56;72.17;101208.72;2009814;85;21080;-78
2022/02/13 01:31:39;;;;;;;47.62;18.98;;;;;;;-2.57;72.18;101208.30;2029416;85;21041;-77
2022/02/13 01:34:42;;;;;;;37.38;18.73;;;;;;;-2.59;72.28;101205.36;2029203;85;21115;-78
2022/02/13 01:37:46;;;;;;;43.25;18.55;;;;;;;-2.61;72.25;101191.59;2035058;86;21088;-78
2022/02/13 01:40:51;;;;;;;39.03;17.50;;;;;;;-2.60;72.20;101191.52;2035966;86;21132;-77
2022/02/13 01:43:56;;;;;;;39.42;17.37;;;;;;;-2.58;72.20;101185.83;2040152;85;21037;-77
2022/02/13 01:47:03;;;;;;;38.00;17.25;;;;;;;-2.63;71.99;101178.64;2051486;85;21057;-77
2022/02/13 01:50:10;;;;;;;36.58;18.02;;;;;;;-2.63;72.07;101179.95;2054846;85;21099;-78
2022/02/13 01:53:12;;;;;;;42.10;17.50;;;;;;;-2.63;72.05;101173.45;2036923;86;21048;-80
2022/02/13 01:56:14;;;;;;;43.23;19.07;;;;;;;-2.65;71.96;101177.84;2001456;86;21567;-77
2022/02/13 01:59:18;;;;;;;44.48;18.37;;;;;;;-2.66;71.97;101170.13;2002042;85;21001;-77
2022/02/13 02:02:22;;;;;;;44.20;18.45;;;;;;;-2.73;71.98;101163.02;2028734;85;21049;-78
2022/02/13 02:05:26;;;;;;;47.80;19.00;;;;;;;-2.73;71.99;101159.96;2038211;85;21404;-78
2022/02/13 02:08:31;;;;;;;46.73;18.87;;;;;;;-2.74;72.02;101167.34;2035350;86;21219;-77
2022/02/13 02:11:36;;;;;;;41.40;19.12;;;;;;;-2.74;72.04;101160.84;2030133;86;21096;-80
2022/02/13 02:14:41;;;;;;;39.95;18.30;;;;;;;-2.73;72.12;101155.22;2032053;86;21562;-78
2022/02/13 02:17:46;;;;;;;44.00;19.30;;;;;;;-2.79;71.94;101151.09;2052081;86;21036;-80
2022/02/13 02:20:49;;;;;;;43.73;18.90;;;;;;;-2.85;72.14;101144.80;2030425;86;21084;-80
2022/02/13 02:23:53;;;;;;;52.15;21.57;;;;;;;-2.81;72.21;101137.31;2035042;86;21044;-78
2022/02/13 02:26:59;;;;;;;44.73;20.25;;;;;;;-2.82;72.25;101133.00;2046067;85;21163;-80
2022/02/13 02:30:02;;;;;;;44.38;19.85;;;;;;;-2.77;72.29;101131.09;2028790;85;21152;-79
2022/02/13 02:33:09;;;;;;;43.83;19.62;;;;;;;-2.76;72.20;101122.84;2056013;84;21076;-78
2022/02/13 02:36:18;;;;;;;40.55;17.73;;;;;;;-2.80;72.19;101114.77;2056356;85;21100;-78
2022/02/13 02:39:21;;;;;;;43.87;18.98;;;;;;;-2.88;72.28;101115.05;2032272;86;21116;-78
2022/02/13 02:42:25;;;;;;;38.08;18.55;;;;;;;-2.93;72.36;101107.87;2052733;86;21133;-78
2022/02/13 02:45:29;;;;;;;49.15;20.57;;;;;;;-2.92;72.44;101100.95;2037478;86;21148;-78
2022/02/13 02:48:36;;;;;;;45.70;20.02;;;;;;;-2.90;72.43;101110.81;2026142;86;21128;-78
2022/02/13 02:51:38;;;;;;;41.75;19.15;;;;;;;-2.90;72.37;101100.42;2032903;86;21069;-85
2022/02/13 02:54:46;;;;;;;42.03;18.30;;;;;;;-2.91;72.43;101094.84;2005876;85;21092;-79
2022/02/13 02:57:48;;;;;;;42.30;18.10;;;;;;;-2.90;72.46;101085.71;2032356;86;21069;-79
2022/02/13 03:00:52;;;;;;;38.73;16.35;;;;;;;-2.93;72.47;101076.70;2032014;86;21050;-78
2022/02/13 03:04:00;;;;;;;46.28;18.32;;;;;;;-2.90;72.47;101071.43;2048385;85;21133;-78
2022/02/13 03:07:03;;;;;;;44.20;18.67;;;;;;;-2.92;72.51;101064.14;2026606;85;21077;-80
2022/02/13 03:10:08;;;;;;;38.40;17.10;;;;;;;-2.94;72.57;101067.23;2045532;86;21140;-77
2022/02/13 03:13:12;;;;;;;38.60;17.50;;;;;;;-2.97;72.54;101069.48;2004040;86;21079;-78
2022/02/13 03:16:14;;;;;;;40.08;16.70;;;;;;;-3.01;72.43;101056.70;2035958;85;21045;-77
2022/02/13 03:19:18;;;;;;;40.25;16.85;;;;;;;-3.01;72.62;101058.84;2050203;85;21115;-77
2022/02/13 03:22:23;;;;;;;35.50;15.53;;;;;;;-2.98;72.71;101056.58;2024343;86;21065;-78
2022/02/13 03:25:26;;;;;;;31.35;14.80;;;;;;;-2.98;72.69;101047.49;2029085;86;21187;-79
2022/02/13 03:28:30;;;;;;;37.55;15.78;;;;;;;-2.97;72.68;101046.12;2052577;85;21069;-83
2022/02/13 03:31:35;;;;;;;34.48;16.57;;;;;;;-2.97;72.67;101037.48;2046447;85;21103;-78
2022/02/13 03:34:38;;;;;;;34.50;16.37;;;;;;;-2.96;72.79;101040.47;2033154;85;21029;-78
2022/02/13 03:37:43;;;;;;;34.00;15.85;;;;;;;-2.96;72.80;101032.67;2050478;85;22377;-78
2022/02/13 03:40:46;;;;;;;41.18;16.67;;;;;;;-2.97;72.74;101028.39;2034776;86;21083;-82
2022/02/13 03:43:50;;;;;;;39.83;16.75;;;;;;;-2.96;72.73;101022.29;2034380;86;21135;-80
2022/02/13 03:46:53;;;;;;;32.73;15.55;;;;;;;-2.94;72.79;101023.92;2031873;85;22273;-77
2022/02/13 03:49:55;;;;;;;35.98;14.93;;;;;;;-2.91;72.69;101030.75;2033416;85;21059;-79
2022/02/13 03:52:57;;;;;;;36.83;15.90;;;;;;;-2.91;72.64;101026.02;2031314;86;21024;-83
2022/02/13 03:55:59;;;;;;;36.33;15.98;;;;;;;-2.91;72.68;101022.97;2024816;86;21029;-80
2022/02/13 03:59:06;;;;;;;37.23;16.90;;;;;;;-2.92;72.71;101021.73;2013321;86;21144;-79
2022/02/13 04:02:10;;;;;;;31.52;15.50;;;;;;;-2.91;72.60;101017.77;2050905;85;21559;-78
2022/02/13 04:05:14;;;;;;;43.90;17.85;;;;;;;-2.93;72.61;101011.78;2037549;85;21111;-77
2022/02/13 04:08:19;;;;;;;39.38;18.90;;;;;;;-2.92;72.70;101018.69;2056084;85;21101;-89
2022/02/13 04:11:23;;;;;;;36.50;16.82;;;;;;;-2.94;72.68;101013.53;2007270;85;21045;-78
2022/02/13 04:14:28;;;;;;;37.05;16.85;;;;;;;-2.91;72.69;101003.95;2035821;85;21056;-78
2022/02/13 04:17:34;;;;;;;36.77;17.12;;;;;;;-2.84;72.73;100998.46;2019545;85;21079;-78
2022/02/13 04:20:38;;;;;;;31.95;16.12;;;;;;;-2.78;72.66;100998.22;2056860;85;21576;-81
2022/02/13 04:23:44;;;;;;;34.50;17.05;;;;;;;-2.78;72.57;100996.08;2025176;86;21028;-84
2022/02/13 04:26:48;;;;;;;37.65;15.70;;;;;;;-2.82;72.51;100990.59;2028828;86;21095;-78
2022/02/13 04:29:52;;;;;;;36.88;15.53;;;;;;;-2.83;72.66;100983.72;2008830;86;21076;-77
2022/02/13 04:33:00;;;;;;;35.92;15.20;;;;;;;-2.89;72.70;100984.80;2049273;85;21037;-79
2022/02/13 04:36:05;;;;;;;33.70;16.32;;;;;;;-2.93;72.79;100976.72;2027800;85;21107;-77
2022/02/13 04:39:12;;;;;;;32.75;14.58;;;;;;;-2.98;72.80;100974.78;2012433;86;21132;-78
2022/02/13 04:42:16;;;;;;;31.75;15.88;;;;;;;-3.02;72.82;100964.94;2030049;86;21037;-78
2022/02/13 04:45:24;;;;;;;39.18;16.70;;;;;;;-3.10;72.84;100963.55;2008218;86;21124;-90
2022/02/13 04:48:27;;;;;;;42.78;17.70;;;;;;;-3.12;72.90;100956.30;2047351;86;21096;-81
2022/02/13 04:51:35;;;;;;;33.28;15.75;;;;;;;-3.18;72.78;100949.13;2048657;85;21124;-78
2022/02/13 04:54:39;;;;;;;31.50;16.50;;;;;;;-3.29;72.95;100946.09;2031855;86;21124;-82
2022/02/13 04:57:44;;;;;;;36.28;16.23;;;;;;;-3.33;73.10;100940.61;2038922;85;21140;-78
2022/02/13 05:00:48;;;;;;;37.98;16.35;;;;;;;-3.38;73.19;100936.04;2032241;86;21440;-78
2022/02/13 05:03:50;;;;;;;39.10;16.65;;;;;;;-3.42;73.26;100935.31;2049267;85;21069;-77
2022/02/13 05:06:52;;;;;;;39.25;17.17;;;;;;;-3.51;73.37;100939.56;2032840;85;21358;-77
2022/02/13 05:09:55;;;;;;;32.00;16.57;;;;;;;-3.53;73.58;100930.14;2055091;85;21076;-77
2022/02/13 05:13:00;;;;;;;34.45;14.90;;;;;;;-3.52;73.71;100926.63;2008129;85;21056;-79
2022/02/13 05:16:07;;;;;;;39.83;16.20;;;;;;;-3.50;73.77;100925.67;2034089;85;21112;-79
2022/02/13 05:19:09;;;;;;;37.28;16.10;;;;;;;-3.42;73.89;100921.05;2030749;85;21069;-91
2022/02/13 05:22:12;;;;;;;36.70;14.90;;;;;;;-3.37;73.86;100922.18;2033752;86;21021;-77
2022/02/13 05:25:16;;;;;;;31.82;13.95;;;;;;;-3.37;73.77;100914.39;1994737;86;21097;-77
2022/02/13 05:28:23;;;;;;;35.15;16.95;;;;;;;-3.36;73.73;100905.69;2004152;86;21115;-80
2022/02/13 05:31:29;;;;;;;27.45;14.50;;;;;;;-3.37;73.81;100900.12;2033932;85;21327;-78
2022/02/13 05:34:28;;;;;;;31.30;15.03;;;;;;;-3.41;73.89;100899.83;2010217;85;21132;-77
2022/02/13 05:37:32;;;;;;;31.42;15.25;;;;;;;-3.42;73.87;100900.74;2005285;86;21068;-78
2022/02/13 05:40:34;;;;;;;33.30;15.83;;;;;;;-3.50;73.96;100902.78;2053237;84;21576;-82
2022/02/13 05:43:39;;;;;;;31.25;14.38;;;;;;;-3.61;73.98;100905.31;2022352;86;21112;-79
2022/02/13 05:46:43;;;;;;;35.65;14.13;;;;;;;-3.67;74.15;100897.77;2031127;85;21576;-81
2022/02/13 05:49:52;;;;;;;26.23;13.48;;;;;;;-3.71;74.17;100900.09;2053626;85;21599;-77
2022/02/13 05:52:55;;;;;;;27.87;13.80;;;;;;;-3.69;74.44;100898.72;2054336;85;21559;-77
2022/02/13 05:55:59;;;;;;;29.25;14.35;;;;;;;-3.65;74.44;100896.43;2029063;86;21061;-79
2022/02/13 05:59:01;;;;;;;25.72;13.98;;;;;;;-3.63;74.46;100891.58;2055553;85;21504;-79
2022/02/13 06:02:05;;;;;;;30.97;13.10;;;;;;;-3.52;74.61;100889.02;2031339;85;21120;-77
2022/02/13 06:05:09;;;;;;;31.12;13.15;;;;;;;-3.45;74.66;100894.37;2036197;85;21116;-80
2022/02/13 06:08:14;;;;;;;25.85;12.13;;;;;;;-3.48;74.83;100885.41;2011524;86;21089;-77
2022/02/13 06:11:16;;;;;;;25.45;11.68;;;;;;;-3.48;74.85;100876.33;2032663;86;21049;-76
2022/02/13 06:14:22;;;;;;;26.85;13.20;;;;;;;-3.47;74.94;100889.69;2001511;85;21655;-82
2022/02/13 06:17:24;;;;;;;26.35;12.58;;;;;;;-3.45;74.76;100884.00;2052919;85;21107;-79
2022/02/13 06:20:28;;;;;;;20.05;9.98;;;;;;;-3.38;74.95;100884.14;2036678;86;21092;-77
2022/02/13 06:23:34;;;;;;;21.75;10.45;;;;;;;-3.30;75.29;100879.50;2050841;85;21128;-77
2022/02/13 06:26:39;;;;;;;19.95;9.58;;;;;;;-3.20;75.31;100885.19;2050814;85;21539;-80
2022/02/13 06:29:41;;;;;;;24.37;11.43;;;;;;;-3.10;75.45;100882.60;2050226;85;21060;-78
2022/02/13 06:32:46;;;;;;;19.42;10.53;;;;;;;-2.97;75.30;100869.98;2027028;86;21105;-80
2022/02/13 06:35:48;;;;;;;17.30;10.15;;;;;;;-2.81;75.16;100871.06;2033123;86;21614;-78
2022/02/13 06:38:54;;;;;;;19.82;9.60;;;;;;;-2.55;75.22;100867.36;2008874;86;21442;-76
2022/02/13 06:41:56;;;;;;;19.98;10.80;;;;;;;-2.07;75.34;100865.31;2031840;86;21095;-77
2022/02/13 06:45:01;;;;;;;19.15;10.03;;;;;;;-1.44;75.12;100853.33;2028765;85;21097;-76
2022/02/13 06:48:06;;;;;;;19.07;9.43;;;;;;;-0.97;74.41;100858.87;2031634;85;21017;-77
2022/02/13 06:51:10;;;;;;;25.17;9.68;;;;;;;-0.83;73.58;100844.33;2011409;86;22275;-74
2022/02/13 06:54:11;;;;;;;16.90;8.93;;;;;;;-0.85;73.02;100839.64;2031127;86;21056;-77
2022/02/13 06:57:13;;;;;;;15.93;9.00;;;;;;;-0.96;73.01;100840.16;2031093;85;21084;-77
2022/02/13 07:00:17;;;;;;;14.33;9.20;;;;;;;-1.00;73.18;100859.02;2011389;86;21032;-83
2022/02/13 07:03:21;;;;;;;18.05;8.83;;;;;;;-0.87;73.31;100851.46;2011319;85;21525;-82
2022/02/13 07:06:24;;;;;;;15.83;8.05;;;;;;;-0.61;73.28;100855.83;2030700;85;21017;-82
2022/02/13 07:09:28;;;;;;;19.48;8.83;;;;;;;-0.42;72.80;100858.33;2032224;86;21005;-80
2022/02/13 07:12:30;;;;;;;16.52;8.95;;;;;;;-0.25;72.68;100849.20;2032426;85;22261;-81
2022/02/13 07:15:35;;;;;;;16.75;9.40;;;;;;;-0.01;72.61;100842.67;2053243;85;21129;-83
2022/02/13 07:18:37;;;;;;;17.35;9.78;;;;;;;0.31;72.48;100840.13;2031402;86;21076;-80
2022/02/13 07:21:42;;;;;;;15.20;8.33;;;;;;;0.63;72.26;100840.95;2027720;86;21076;-81
2022/02/13 07:24:47;;;;;;;14.98;8.55;;;;;;;0.88;71.91;100845.64;2019272;85;21104;-80
2022/02/13 07:27:49;;;;;;;17.90;9.15;;;;;;;0.93;71.23;100845.83;2038767;85;21117;-76
2022/02/13 07:30:53;;;;;;;18.95;9.08;;;;;;;1.07;71.30;100840.66;2047164;85;21714;-76
2022/02/13 07:33:56;;;;;;;16.80;8.40;;;;;;;1.11;70.86;100833.86;2029223;85;21093;-75
2022/02/13 07:37:04;;;;;;;16.00;8.20;;;;;;;1.22;70.87;100835.03;2005252;86;21108;-75
2022/02/13 07:40:13;;;;;;;17.35;8.63;;;;;;;1.07;70.21;100827.14;2050508;85;21092;-75
2022/02/13 07:43:15;;;;;;;15.15;8.03;;;;;;;1.08;70.40;100822.28;2033941;85;21084;-72
2022/02/13 07:46:18;;;;;;;14.70;8.13;;;;;;;1.05;69.76;100821.62;2030769;85;21516;-74
2022/02/13 07:49:21;;;;;;;15.40;8.60;;;;;;;0.99;69.83;100823.30;2031291;86;21038;-76
2022/02/13 07:52:24;;;;;;;12.05;7.12;;;;;;;0.93;69.59;100819.27;2052064;85;21060;-77
2022/02/13 07:55:28;;;;;;;13.27;8.07;;;;;;;0.81;69.62;100819.94;2027884;85;21044;-77
2022/02/13 07:58:32;;;;;;;11.13;6.33;;;;;;;0.71;68.61;100824.86;2053416;85;21072;-76
2022/02/13 08:01:38;;;;;;;14.30;7.00;;;;;;;0.60;68.72;100824.61;2008749;85;21052;-74
2022/02/13 08:04:42;;;;;;;12.95;7.15;;;;;;;0.58;69.34;100829.08;2033390;85;21081;-80
2022/02/13 08:07:46;;;;;;;10.05;6.62;;;;;;;0.63;69.21;100827.89;2029756;86;21068;-78
2022/02/13 08:10:48;;;;;;;13.03;6.80;;;;;;;0.65;69.44;100825.20;2002930;85;21036;-75
2022/02/13 08:13:54;;;;;;;11.97;6.92;;;;;;;0.74;69.46;100827.30;2044539;85;21104;-75
2022/02/13 08:16:57;;;;;;;16.95;8.30;;;;;;;0.87;69.24;100832.65;2029163;86;21072;-77
2022/02/13 08:20:03;;;;;;;14.30;7.15;;;;;;;0.94;68.84;100830.55;2028026;86;21398;-78
2022/02/13 08:23:06;;;;;;;11.35;7.33;;;;;;;1.17;68.97;100823.52;2024692;85;21057;-76
2022/02/13 08:26:11;;;;;;;14.10;7.50;;;;;;;1.62;68.57;100826.97;2010686;85;21099;-76
2022/02/13 08:29:14;;;;;;;12.25;7.95;;;;;;;1.97;68.32;100826.59;2031651;85;21061;-75
2022/02/13 08:32:20;;;;;;;18.50;8.28;;;;;;;2.12;68.05;100829.59;2051009;85;21069;-88
2022/02/13 08:35:24;;;;;;;14.28;7.80;;;;;;;2.45;67.85;100817.94;2024957;86;21107;-77
2022/02/13 08:38:28;;;;;;;13.45;7.58;;;;;;;3.06;68.18;100819.19;2052716;85;21076;-74
2022/02/13 08:41:35;;;;;;;13.93;8.48;;;;;;;3.66;66.53;100814.31;2046500;85;21550;-75
2022/02/13 08:44:37;;;;;;;14.45;9.28;;;;;;;4.18;64.94;100818.58;2048024;85;21669;-75
2022/02/13 08:47:41;;;;;;;11.12;8.23;;;;;;;4.47;65.53;100812.55;2028773;86;21096;-77
2022/02/13 08:50:46;;;;;;;14.93;8.00;;;;;;;4.78;63.92;100809.84;2047955;85;21540;-74
2022/02/13 08:53:50;;;;;;;16.20;8.88;;;;;;;4.87;63.53;100805.70;2027394;85;21076;-76
2022/02/13 08:56:53;;;;;;;13.55;8.10;;;;;;;5.05;62.04;100812.23;2048613;85;21578;-75
2022/02/13 08:59:57;;;;;;;12.75;7.92;;;;;;;5.31;62.68;100806.81;2025819;86;21069;-78
2022/02/13 09:03:01;;;;;;;14.23;8.63;;;;;;;5.53;60.64;100810.80;2051118;85;22176;-75
2022/02/13 09:06:06;;;;;;;14.30;8.80;;;;;;;5.82;62.02;100808.55;2032978;86;21132;-74
2022/02/13 09:09:12;;;;;;;13.30;8.38;;;;;;;6.05;61.37;100808.58;2037408;86;21086;-75
2022/02/13 09:12:19;;;;;;;13.88;8.90;;;;;;;6.09;60.74;100810.03;2004206;85;21082;-76
2022/02/13 09:15:20;;;;;;;16.32;9.88;;;;;;;6.29;61.03;100802.69;2032743;86;21748;-74
2022/02/13 09:18:23;;;;;;;14.28;8.65;;;;;;;6.72;59.65;100796.58;2050270;85;21018;-77
2022/02/13 09:21:27;;;;;;;17.40;9.55;;;;;;;6.78;59.05;100793.92;2029708;85;21109;-77
2022/02/13 09:24:34;;;;;;;13.58;7.05;;;;;;;7.00;60.02;100787.72;2030452;85;21060;-77
2022/02/13 09:27:41;;;;;;;16.82;8.60;;;;;;;7.10;58.82;100791.77;2045365;86;21068;-78
2022/02/13 09:30:50;;;;;;;14.78;8.18;;;;;;;7.45;56.30;100795.39;2029955;86;21087;-78
2022/02/13 09:33:56;;;;;;;16.12;8.30;;;;;;;7.34;56.87;100786.22;2024957;86;21058;-78
2022/02/13 09:37:00;;;;;;;15.83;8.20;;;;;;;7.25;55.81;100786.52;2009037;86;21025;-78
2022/02/13 09:40:05;;;;;;;15.23;7.78;;;;;;;7.17;54.33;100787.14;2003325;86;21132;-78
2022/02/13 09:43:09;;;;;;;11.95;7.92;;;;;;;7.07;55.37;100780.16;2031725;86;21104;-78
2022/02/13 09:46:16;;;;;;;13.75;8.00;;;;;;;7.10;53.40;100767.53;2027941;85;21081;-77
2022/02/13 09:49:22;;;;;;;13.32;7.72;;;;;;;6.95;53.41;100771.42;2029916;86;21044;-78
2022/02/13 09:52:26;;;;;;;12.23;7.87;;;;;;;7.01;53.84;100764.34;2028591;86;21106;-78
2022/02/13 09:55:30;;;;;;;13.05;8.33;;;;;;;6.92;53.56;100758.49;2050104;85;22211;-80
2022/02/13 09:58:36;;;;;;;17.30;8.50;;;;;;;7.09;53.96;100765.00;2048662;86;21152;-80
2022/02/13 10:01:42;;;;;;;16.30;8.90;;;;;;;6.98;52.30;100755.34;2049334;86;21558;-78
2022/02/13 10:04:44;;;;;;;13.68;7.50;;;;;;;6.64;50.90;100758.13;2050006;86;21563;-78
2022/02/13 10:07:50;;;;;;;13.10;7.65;;;;;;;6.38;52.56;100752.83;2027117;85;21100;-82
2022/02/13 10:11:17;;;;;;;13.05;7.62;;;;;;;6.50;53.35;100759.28;2025518;86;21104;-77
2022/02/13 10:14:22;;;;;;;16.65;9.48;;;;;;;6.74;51.08;100747.67;2042861;85;21151;-79
2022/02/13 10:17:25;;;;;;;14.83;8.23;;;;;;;6.79;52.73;100744.18;2023795;85;21034;-81
2022/02/13 10:20:36;;;;;;;12.93;7.85;;;;;;;7.02;52.76;100738.30;1986718;86;21108;-82
2022/02/13 10:23:41;;;;;;;14.03;9.20;;;;;;;7.19;51.08;100727.64;2049522;85;21044;-83
2022/02/13 10:26:51;;;;;;;16.35;7.75;;;;;;;7.17;50.83;100723.80;2045191;85;21581;-83
2022/02/13 10:29:55;;;;;;;13.20;8.00;;;;;;;7.22;51.47;100721.27;2051543;85;21651;-81
2022/02/13 10:33:01;;;;;;;12.82;7.92;;;;;;;7.34;51.44;100716.25;2012853;85;21140;-89
2022/02/13 10:36:12;;;;;;;11.38;6.33;;;;;;;7.57;51.98;100709.85;2050741;85;21120;-79
2022/02/13 10:39:22;;;;;;;12.30;6.25;;;;;;;7.88;50.87;100705.83;2033332;85;21570;-80
2022/02/13 10:42:28;;;;;;;7.33;5.12;;;;;;;8.10;51.77;100712.70;2010149;85;21024;-84
2022/02/13 10:45:33;;;;;;;10.48;5.85;;;;;;;8.10;50.12;100692.88;2032740;85;21049;-82
2022/02/13 10:48:37;;;;;;;6.40;4.95;;;;;;;7.98;50.45;100686.88;2013151;85;21337;-82
2022/02/13 10:51:44;;;;;;;10.60;5.55;;;;;;;7.87;49.90;100692.28;2027830;85;21099;-85
2022/02/13 10:54:49;;;;;;;10.48;5.78;;;;;;;7.62;49.94;100680.38;2026374;85;21746;-82
2022/02/13 10:57:54;;;;;;;9.20;5.80;;;;;;;7.51;49.03;100679.98;2046339;85;21367;-83
2022/02/13 11:01:01;;;;;;;9.73;5.58;;;;;;;7.58;49.62;100680.31;2025200;85;21084;-83
2022/02/13 11:04:04;;;;;;;10.18;5.83;;;;;;;7.54;48.46;100677.08;2051823;85;21070;-82
2022/02/13 11:07:09;;;;;;;8.63;6.10;;;;;;;7.48;49.53;100675.47;2028306;85;21057;-84
2022/02/13 11:10:26;;;;;;;10.53;6.20;;;;;;;7.59;50.04;100681.97;2003654;86;21040;-83
2022/02/13 11:13:33;;;;;;;10.08;6.00;;;;;;;7.71;49.51;100676.09;2052012;84;21008;-83
2022/02/13 11:16:40;;;;;;;8.50;5.65;;;;;;;7.80;50.21;100673.99;2049898;85;20980;-85
2022/02/13 11:19:44;;;;;;;11.70;6.12;;;;;;;7.69;48.72;100663.53;2029086;85;21088;-81
2022/02/13 11:22:57;;;;;;;9.13;5.40;;;;;;;7.68;49.30;100662.67;2028606;85;21698;-83
2022/02/13 11:26:07;;;;;;;8.25;5.83;;;;;;;7.64;48.67;100656.00;2030128;85;21037;-81
2022/02/13 11:29:16;;;;;;;8.78;5.87;;;;;;;7.62;46.95;100650.01;2031116;85;21056;-80
2022/02/13 11:32:42;;;;;;;10.43;6.15;;;;;;;7.54;48.01;100642.75;2000571;85;21064;-81
2022/02/13 11:36:05;;;;;;;10.03;5.97;;;;;;;7.51;48.03;100644.34;2007457;85;21119;-84
2022/02/13 11:39:10;;;;;;;7.75;5.20;;;;;;;7.52;48.78;100638.59;2031293;86;21630;-89
2022/02/13 11:42:20;;;;;;;10.72;5.67;;;;;;;7.63;48.28;100638.50;2047209;85;22044;-83
2022/02/13 11:45:24;;;;;;;11.53;6.00;;;;;;;7.68;46.52;100630.97;2011848;86;21401;-82
2022/02/13 11:48:43;;;;;;;8.95;5.20;;;;;;;7.75;48.54;100634.76;2009272;85;21021;-82
2022/02/13 11:52:00;;;;;;;11.78;6.22;;;;;;;7.84;47.90;100629.14;1983123;85;21068;-82
2022/02/13 11:55:17;;;;;;;9.25;5.95;;;;;;;7.84;47.89;100618.08;2029968;85;21108;-83
2022/02/13 11:58:21;;;;;;;9.55;5.53;;;;;;;7.82;46.93;100609.94;2047853;85;21148;-82
2022/02/13 12:01:41;;;;;;;10.18;6.45;;;;;;;7.79;47.88;100595.69;2029764;85;21029;-82
2022/02/13 12:05:16;;;;;;;10.88;5.83;;;;;;;7.90;48.72;100594.73;2003491;86;21108;-80
2022/02/13 12:08:26;;;;;;;9.55;5.92;;;;;;;8.07;48.29;100589.58;2010529;86;21196;-82
2022/02/13 12:11:40;;;;;;;9.98;5.20;;;;;;;8.05;48.04;100582.77;2053847;85;21029;-80
2022/02/13 12:14:45;;;;;;;9.73;5.65;;;;;;;8.05;47.16;100586.27;2029980;85;21077;-84
2022/02/13 12:17:50;;;;;;;11.63;6.30;;;;;;;7.98;47.42;100581.67;2029311;86;21638;-79
2022/02/13 12:20:58;;;;;;;11.93;5.75;;;;;;;8.03;48.34;100593.98;2024474;85;21080;-88
2022/02/13 12:24:03;;;;;;;8.60;5.33;;;;;;;8.15;48.61;100588.06;1983636;86;21144;-81
2022/02/13 12:27:09;;;;;;;7.85;5.30;;;;;;;8.06;46.54;100582.64;2030273;85;21001;-88
2022/02/13 12:30:15;;;;;;;8.60;5.78;;;;;;;7.88;46.89;100576.36;2029097;85;21024;-87
2022/02/13 12:33:22;;;;;;;10.13;5.22;;;;;;;7.75;47.71;100575.32;2050536;85;21064;-87
2022/02/13 12:36:28;;;;;;;9.58;5.58;;;;;;;7.73;47.57;100567.18;2046327;85;21331;-87
2022/02/13 12:39:32;;;;;;;8.48;5.17;;;;;;;7.75;47.75;100560.79;2006345;85;21029;-86
2022/02/13 12:42:39;;;;;;;6.67;4.72;;;;;;;7.70;47.67;100564.33;2031174;86;21527;-88
2022/02/13 12:45:43;;;;;;;8.33;4.90;;;;;;;7.69;47.66;100555.23;2010961;85;21072;-87
2022/02/13 12:48:48;;;;;;;10.40;4.85;;;;;;;7.68;47.49;100556.19;2049847;85;21052;-83
2022/02/13 12:51:52;;;;;;;6.37;4.42;;;;;;;7.63;47.79;100549.52;2028556;85;21632;-83
2022/02/13 12:54:56;;;;;;;11.18;5.00;;;;;;;7.63;47.29;100547.38;2045890;85;21065;-84
2022/02/13 12:58:01;;;;;;;7.20;4.72;;;;;;;7.55;47.62;100550.69;2026476;86;21159;-84
2022/02/13 13:01:05;;;;;;;7.90;4.87;;;;;;;7.45;47.19;100543.23;1987861;86;21160;-84
2022/02/13 13:04:10;;;;;;;8.88;6.37;;;;;;;7.36;47.10;100544.88;2007765;86;21091;-85
2022/02/13 13:07:25;;;;;;;9.60;6.05;;;;;;;7.34;47.20;100539.38;2027290;86;21048;-85
2022/02/13 13:10:29;;;;;;;8.80;5.97;;;;;;;7.31;47.14;100533.88;2028756;86;21543;-85
2022/02/13 13:13:37;;;;;;;9.25;5.10;;;;;;;7.23;47.28;100528.44;2028780;86;21091;-85
2022/02/13 13:16:41;;;;;;;10.38;6.00;;;;;;;7.21;47.46;100525.59;2028531;86;21100;-86
2022/02/13 13:19:46;;;;;;;10.88;6.58;;;;;;;7.23;48.01;100528.94;2049119;85;21076;-86
2022/02/13 13:22:48;;;;;;;7.95;5.58;;;;;;;7.28;48.42;100522.28;2029324;86;21543;-86
2022/02/13 13:25:51;;;;;;;9.03;5.33;;;;;;;7.24;48.01;100518.75;2049620;84;21032;-85
2022/02/13 13:28:58;;;;;;;7.17;4.83;;;;;;;7.19;47.86;100520.46;2051133;84;21104;-87
2022/02/13 13:32:15;;;;;;;7.30;5.60;;;;;;;7.14;47.91;100516.06;2054792;84;21057;-85
2022/02/13 13:35:21;;;;;;;8.25;5.53;;;;;;;7.12;48.33;100507.44;2026792;85;21022;-87
2022/02/13 13:38:33;;;;;;;10.95;6.25;;;;;;;7.07;48.14;100506.55;2028549;85;21056;-79
2022/02/13 13:41:40;;;;;;;10.40;5.85;;;;;;;7.02;47.97;100503.47;2028230;86;21037;-79
2022/02/13 13:44:43;;;;;;;15.98;6.25;;;;;;;6.98;48.50;100502.54;2026081;86;21088;-83
2022/02/13 13:47:50;;;;;;;9.65;6.08;;;;;;;6.89;48.24;100502.38;2041086;85;21033;-84
2022/02/13 13:50:56;;;;;;;8.65;6.05;;;;;;;6.84;48.50;100498.47;2010080;85;21179;-78
2022/02/13 14:37:38;;;;;;;10.10;6.20;;;;;;;6.26;49.80;100470.87;2141428;83;21070;-87
2022/02/13 14:40:40;;;;;;;9.45;6.67;;;;;;;6.22;49.70;100460.26;2136124;82;21502;-85
2022/02/13 14:43:41;;;;;;;12.82;6.55;;;;;;;6.19;49.88;100456.53;2145007;82;21044;-86
2022/02/13 14:46:43;;;;;;;11.97;6.62;;;;;;;6.18;50.03;100460.15;2146725;82;20982;-87
2022/02/13 14:49:45;;;;;;;12.23;6.58;;;;;;;6.16;50.19;100451.53;2143615;82;21483;-86
2022/02/13 14:52:46;;;;;;;12.73;6.08;;;;;;;6.11;50.02;100464.28;2135261;83;21078;-86
2022/02/13 14:55:48;;;;;;;10.35;6.08;;;;;;;6.09;50.06;100449.08;2114634;84;21057;-86
2022/02/13 14:58:51;;;;;;;10.38;6.42;;;;;;;6.05;50.14;100451.60;2143376;82;21471;-85